Time;durP1;ratioP1;P1;durP2;ratioP2;P2;SDS_P1;SDS_P2;PMS_P1;PMS_P2;Temp;Humidity;BMP_temperature;BMP_pressure;BME280_temperature;BME280_humidity;BME280_pressure;Samples;Min_cycle;Max_cycle;Signal;HPM_P1;HPM_P2
2024/01/15 00:00:13;;;;;;;6.30;2.05;;;;;;;17.57;49.93;100429.38;5043217;28;20052;-42
2024/01/15 00:02:39;;;;;;;3.97;1.60;;;;;;;17.55;49.96;100426.94;5048178;28;20025;-42
2024/01/15 00:05:04;;;;;;;6.50;1.80;;;;;;;17.52;49.94;100424.75;5044656;28;20032;-42
2024/01/15 00:07:30;;;;;;;4.10;1.73;;;;;;;17.51;49.95;100425.03;5040440;28;20520;-42
2024/01/15 00:09:55;;;;;;;3.70;1.60;;;;;;;17.49;49.97;100417.09;5043648;28;20029;-41
2024/01/15 00:12:20;;;;;;;9.00;1.80;;;;;;;17.47;49.88;100419.31;5042766;28;20093;-41
2024/01/15 00:14:46;;;;;;;4.18;1.50;;;;;;;17.45;49.74;100418.78;5041106;28;20671;-42
2024/01/15 00:17:12;;;;;;;5.60;2.17;;;;;;;17.43;49.99;100408.09;5044103;28;20033;-42
2024/01/15 00:19:38;;;;;;;5.28;1.75;;;;;;;17.40;49.81;100402.34;5024572;28;20406;-42
2024/01/15 00:22:04;;;;;;;7.07;1.88;;;;;;;17.39;49.91;100398.00;5025772;28;20456;-41
2024/01/15 00:24:29;;;;;;;5.75;1.70;;;;;;;17.37;50.01;100397.47;5041959;28;20025;-41
2024/01/15 00:26:55;;;;;;;7.10;1.83;;;;;;;17.35;49.73;100400.50;5044954;28;20529;-41
2024/01/15 00:29:20;;;;;;;6.40;1.75;;;;;;;17.32;49.59;100390.91;5046950;28;20021;-41
2024/01/15 00:31:46;;;;;;;4.88;1.65;;;;;;;17.29;49.81;100388.72;5040332;28;20024;-41
2024/01/15 00:34:11;;;;;;;7.10;1.80;;;;;;;17.28;49.87;100384.34;5049073;28;20024;-41
2024/01/15 00:36:37;;;;;;;5.75;1.90;;;;;;;17.26;49.87;100383.81;5074685;28;20466;-42
2024/01/15 00:39:04;;;;;;;5.47;1.70;;;;;;;17.24;49.92;100382.47;5038073;28;20047;-41
2024/01/15 00:41:30;;;;;;;5.07;1.60;;;;;;;17.24;49.95;100379.72;5040369;28;20252;-40
2024/01/15 00:43:56;;;;;;;7.15;1.90;;;;;;;17.23;49.74;100386.28;5041444;28;20048;-41
2024/01/15 00:46:21;;;;;;;5.65;1.90;;;;;;;17.20;50.05;100378.66;5041679;28;20025;-41
2024/01/15 00:48:47;;;;;;;5.80;1.92;;;;;;;17.18;50.09;100373.47;5028530;28;20094;-41
2024/01/15 00:51:12;;;;;;;5.40;1.80;;;;;;;17.17;49.99;100380.03;5041822;28;20032;-40
2024/01/15 00:53:38;;;;;;;4.53;1.83;;;;;;;17.15;50.28;100377.59;5040145;28;20036;-41
2024/01/15 00:56:03;;;;;;;5.72;1.65;;;;;;;17.14;50.22;100365.00;5041799;28;20064;-41
2024/01/15 00:58:29;;;;;;;5.22;1.85;;;;;;;17.13;50.26;100368.84;5039101;28;20201;-42
2024/01/15 01:00:55;;;;;;;5.43;1.80;;;;;;;17.12;50.18;100360.91;5039834;28;20032;-43
2024/01/15 01:03:20;;;;;;;4.35;1.60;;;;;;;17.11;50.21;100360.06;5040290;28;20508;-42
2024/01/15 01:05:48;;;;;;;4.63;1.63;;;;;;;17.11;50.04;100364.75;5036737;28;20549;-41
2024/01/15 01:08:13;;;;;;;5.68;1.55;;;;;;;17.11;50.29;100364.75;5042746;28;20017;-42
2024/01/15 01:10:39;;;;;;;5.13;1.60;;;;;;;17.09;50.04;100364.19;5047085;28;20025;-41
2024/01/15 01:13:04;;;;;;;6.75;1.40;;;;;;;17.09;50.17;100364.19;5040783;28;20056;-40
2024/01/15 01:15:30;;;;;;;5.68;1.67;;;;;;;17.06;50.16;100362.84;5040892;28;20489;-41
2024/01/15 01:17:55;;;;;;;6.53;1.67;;;;;;;17.04;49.98;100359.56;5073049;28;20468;-43
2024/01/15 01:20:20;;;;;;;6.47;1.70;;;;;;;17.03;50.12;100357.91;5041734;28;20067;-41
2024/01/15 01:22:46;;;;;;;4.20;1.73;;;;;;;17.05;50.16;100368.63;5041134;28;20028;-40
2024/01/15 01:25:11;;;;;;;4.68;1.60;;;;;;;17.02;50.14;100361.78;5044299;28;20165;-40
2024/01/15 01:27:37;;;;;;;4.25;1.50;;;;;;;17.02;50.00;100353.56;5042830;28;20052;-44
2024/01/15 01:30:02;;;;;;;6.47;1.88;;;;;;;17.00;50.06;100350.28;5039862;28;20051;-41
2024/01/15 01:32:28;;;;;;;6.00;1.40;;;;;;;17.00;50.16;100353.81;5040754;28;20044;-41
2024/01/15 01:34:54;;;;;;;2.95;1.35;;;;;;;16.99;49.90;100349.47;5040674;28;20071;-41
2024/01/15 01:37:19;;;;;;;3.70;1.40;;;;;;;16.97;49.91;100351.66;5042967;28;20021;-42
2024/01/15 01:39:45;;;;;;;8.45;1.75;;;;;;;16.97;50.02;100353.56;5041379;28;20821;-41
2024/01/15 01:42:11;;;;;;;4.80;1.50;;;;;;;16.95;50.08;100353.06;5043157;28;20029;-41
2024/01/15 01:44:36;;;;;;;6.38;1.58;;;;;;;16.95;50.04;100350.31;5039793;28;20127;-41
2024/01/15 01:47:03;;;;;;;8.00;1.50;;;;;;;16.94;49.98;100352.22;5038625;28;20108;-37
2024/01/15 01:49:28;;;;;;;4.30;1.75;;;;;;;16.92;49.93;100356.34;5044088;28;20061;-38
2024/01/15 01:51:57;;;;;;;6.13;1.48;;;;;;;16.91;50.13;100344.56;5040008;28;20459;-38
2024/01/15 01:54:23;;;;;;;3.95;1.58;;;;;;;16.91;50.22;100346.44;5040479;28;20032;-38
2024/01/15 01:56:48;;;;;;;5.82;1.70;;;;;;;16.88;50.00;100341.56;5040287;28;20036;-38
2024/01/15 01:59:14;;;;;;;5.15;1.45;;;;;;;16.88;49.96;100345.09;5043538;28;20036;-37
2024/01/15 02:01:40;;;;;;;5.72;1.52;;;;;;;16.87;50.01;100343.47;5038062;28;20021;-38
2024/01/15 02:04:06;;;;;;;6.07;1.55;;;;;;;16.87;50.01;100342.66;5040656;28;20052;-37
2024/01/15 02:06:31;;;;;;;3.20;1.48;;;;;;;16.84;49.90;100341.28;5037985;28;20028;-38
2024/01/15 02:08:57;;;;;;;4.28;1.33;;;;;;;16.82;49.87;100344.31;5044264;28;20025;-37
2024/01/15 02:11:22;;;;;;;2.92;1.30;;;;;;;16.81;49.93;100339.94;5040642;28;20039;-38
2024/01/15 02:13:48;;;;;;;7.45;1.50;;;;;;;16.80;49.98;100329.28;5041385;28;20040;-37
2024/01/15 02:16:13;;;;;;;2.50;1.13;;;;;;;16.79;49.96;100336.66;5040164;28;20036;-37
2024/01/15 02:18:46;;;;;;;4.30;1.30;;;;;;;16.78;49.88;100332.28;5039763;28;20083;-38
2024/01/15 02:21:11;;;;;;;4.07;1.63;;;;;;;16.77;49.78;100329.84;5037279;28;20040;-38
2024/01/15 02:23:37;;;;;;;4.50;1.55;;;;;;;16.77;49.99;100332.56;5039890;28;20029;-38
2024/01/15 02:26:04;;;;;;;3.05;1.27;;;;;;;16.75;49.95;100329.28;5038630;28;20025;-38
2024/01/15 02:28:30;;;;;;;2.83;1.20;;;;;;;16.73;49.89;100331.50;5039410;28;20025;-38
2024/01/15 02:30:55;;;;;;;4.75;1.50;;;;;;;16.72;50.01;100327.13;5038604;28;20396;-38
2024/01/15 02:33:21;;;;;;;2.47;1.42;;;;;;;16.70;49.95;100327.41;5039389;28;20343;-38
2024/01/15 02:35:46;;;;;;;5.57;1.40;;;;;;;16.69;50.05;100318.38;5047294;28;20482;-38
2024/01/15 02:38:12;;;;;;;3.00;1.35;;;;;;;16.70;50.05;100319.22;5040398;28;20573;-42
2024/01/15 02:40:38;;;;;;;3.40;1.00;;;;;;;16.70;49.86;100321.94;5045152;28;20532;-37
2024/01/15 02:43:03;;;;;;;2.22;1.25;;;;;;;16.68;49.90;100315.91;5038448;28;20052;-37
2024/01/15 02:45:29;;;;;;;3.58;1.20;;;;;;;16.67;49.80;100309.63;5043984;28;20469;-37
2024/01/15 02:47:55;;;;;;;4.45;1.35;;;;;;;16.66;49.72;100316.22;5044174;28;20025;-37
2024/01/15 02:50:20;;;;;;;6.00;1.60;;;;;;;16.67;49.80;100317.81;5045301;28;20028;-38
2024/01/15 02:52:46;;;;;;;4.45;1.40;;;;;;;16.64;50.10;100310.19;5047917;28;20407;-36
2024/01/15 02:55:11;;;;;;;2.92;1.27;;;;;;;16.64;49.77;100312.94;5027207;28;20032;-36
2024/01/15 02:57:36;;;;;;;2.92;1.20;;;;;;;16.63;49.94;100321.41;5041584;28;20025;-37
2024/01/15 03:00:03;;;;;;;4.05;1.20;;;;;;;16.61;49.75;100327.16;5041505;28;20038;-37
2024/01/15 03:02:28;;;;;;;4.15;1.02;;;;;;;16.61;49.74;100324.41;5042624;28;20040;-38
2024/01/15 03:04:54;;;;;;;5.20;1.42;;;;;;;16.57;49.65;100328.81;5043257;28;20542;-38
2024/01/15 03:07:19;;;;;;;1.60;1.00;;;;;;;16.59;49.57;100325.78;5043422;28;20028;-38
2024/01/15 03:09:45;;;;;;;3.38;1.13;;;;;;;16.57;49.70;100325.28;5041202;28;20385;-38
2024/01/15 03:12:11;;;;;;;3.47;1.17;;;;;;;16.56;49.63;100320.91;5044013;28;20032;-38
2024/01/15 03:14:36;;;;;;;2.42;1.10;;;;;;;16.55;49.91;100322.78;5046002;28;20481;-36
2024/01/15 03:17:02;;;;;;;7.15;1.30;;;;;;;16.54;49.86;100321.16;5043818;28;20025;-37
2024/01/15 03:19:27;;;;;;;3.25;1.13;;;;;;;16.54;49.79;100312.94;5041888;28;20033;-37
2024/01/15 03:21:52;;;;;;;4.22;1.10;;;;;;;16.52;49.88;100305.03;5041838;28;20040;-38
2024/01/15 03:24:18;;;;;;;2.17;1.10;;;;;;;16.53;49.74;100300.41;5043442;28;20286;-38
2024/01/15 03:26:43;;;;;;;3.40;1.00;;;;;;;16.50;49.80;100293.56;5044338;28;20035;-38
2024/01/15 03:29:09;;;;;;;4.68;1.15;;;;;;;16.52;49.80;100304.22;5041849;28;20060;-37
2024/01/15 03:31:34;;;;;;;2.03;1.13;;;;;;;16.51;50.00;100327.19;5039615;28;20055;-37
2024/01/15 03:34:00;;;;;;;5.30;1.40;;;;;;;16.52;49.86;100317.91;5044172;28;20087;-37
2024/01/15 03:36:25;;;;;;;3.70;1.20;;;;;;;16.52;49.84;100318.72;5041487;28;20029;-38
2024/01/15 03:38:51;;;;;;;1.52;0.90;;;;;;;16.51;49.78;100311.59;5043105;28;20123;-37
2024/01/15 03:41:16;;;;;;;3.60;1.27;;;;;;;16.52;49.94;100299.56;5045698;28;20029;-38
2024/01/15 03:43:41;;;;;;;2.20;1.20;;;;;;;16.52;49.92;100298.75;5041652;28;20032;-37
2024/01/15 03:46:07;;;;;;;2.17;1.10;;;;;;;16.51;49.86;100297.91;5042926;28;20443;-37
2024/01/15 03:48:32;;;;;;;2.63;1.23;;;;;;;16.51;49.83;100289.72;5037777;28;20070;-42
2024/01/15 03:50:57;;;;;;;4.70;0.98;;;;;;;16.52;49.91;100298.75;5042697;28;20536;-45
2024/01/15 03:53:23;;;;;;;2.15;1.08;;;;;;;16.53;49.78;100290.25;5039646;28;20013;-37
2024/01/15 03:55:49;;;;;;;6.88;1.17;;;;;;;16.55;49.81;100294.63;5044739;28;20059;-37
2024/01/15 03:58:15;;;;;;;5.53;1.30;;;;;;;16.53;49.61;100290.25;5042959;28;20095;-37
2024/01/15 04:00:40;;;;;;;1.63;0.90;;;;;;;16.52;49.73;100283.16;5045902;28;20628;-37
2024/01/15 04:03:06;;;;;;;2.10;1.00;;;;;;;16.51;49.68;100289.72;5041151;28;20221;-37
2024/01/15 04:05:31;;;;;;;1.75;1.02;;;;;;;16.50;49.67;100277.16;5042709;28;20032;-37
2024/01/15 04:07:56;;;;;;;2.20;1.02;;;;;;;16.49;49.93;100285.63;5042389;28;20029;-37
2024/01/15 04:10:22;;;;;;;1.42;0.90;;;;;;;16.48;49.80;100268.41;5043052;28;20473;-37
2024/01/15 04:12:47;;;;;;;4.78;1.15;;;;;;;16.49;49.78;100280.16;5048650;28;20103;-37
2024/01/15 04:15:13;;;;;;;1.80;1.08;;;;;;;16.47;49.71;100288.63;5040904;28;20047;-36
2024/01/15 04:17:38;;;;;;;3.03;0.90;;;;;;;16.46;49.70;100295.22;5051162;28;20029;-36
2024/01/15 04:20:04;;;;;;;3.03;0.85;;;;;;;16.44;49.58;100278.25;5039163;28;20025;-38
2024/01/15 04:22:30;;;;;;;3.40;0.98;;;;;;;16.41;49.33;100273.34;5046506;28;20024;-37
2024/01/15 04:24:55;;;;;;;1.88;0.80;;;;;;;16.41;49.71;100264.34;5041264;28;20039;-36
2024/01/15 04:27:21;;;;;;;1.42;0.90;;;;;;;16.38;49.63;100254.75;5041424;28;20502;-37
2024/01/15 04:29:46;;;;;;;2.78;1.13;;;;;;;16.36;49.71;100267.91;5040469;28;20043;-37
2024/01/15 04:32:11;;;;;;;4.00;1.00;;;;;;;16.36;49.73;100274.19;5042524;28;20025;-40
2024/01/15 04:34:37;;;;;;;1.65;0.75;;;;;;;16.34;49.92;100281.84;5040044;28;20028;-40
2024/01/15 04:37:02;;;;;;;1.92;1.00;;;;;;;16.35;49.83;100288.16;5072249;28;20091;-41
2024/01/15 04:39:29;;;;;;;2.08;0.88;;;;;;;16.36;49.84;100298.00;5041613;28;20048;-40
2024/01/15 04:41:54;;;;;;;1.88;0.73;;;;;;;16.35;49.85;100290.88;5039876;28;20036;-43
2024/01/15 04:44:20;;;;;;;3.92;1.00;;;;;;;16.35;49.87;100280.75;5039720;28;20428;-40
2024/01/15 04:46:45;;;;;;;2.33;0.80;;;;;;;16.36;49.70;100276.91;5056530;28;20104;-40
2024/01/15 04:49:11;;;;;;;2.47;0.75;;;;;;;16.35;49.83;100271.72;5041256;28;20021;-41
2024/01/15 04:51:36;;;;;;;3.75;0.90;;;;;;;16.34;49.77;100259.16;5039579;28;20394;-40
2024/01/15 04:54:02;;;;;;;2.45;1.00;;;;;;;16.32;49.85;100262.19;5040363;28;20391;-40
2024/01/15 04:56:27;;;;;;;1.83;0.90;;;;;;;16.34;49.86;100259.16;5043991;28;20288;-41
2024/01/15 04:58:52;;;;;;;1.40;0.82;;;;;;;16.41;49.77;100247.94;5038226;28;20033;-40
2024/01/15 05:01:18;;;;;;;2.50;0.70;;;;;;;16.50;49.67;100246.22;5037936;28;20144;-40
2024/01/15 05:03:43;;;;;;;1.05;0.70;;;;;;;16.58;49.46;100245.66;5038256;28;20369;-40
2024/01/15 05:06:09;;;;;;;1.55;0.98;;;;;;;16.67;49.42;100245.88;5041180;28;20504;-40
2024/01/15 05:08:34;;;;;;;1.48;1.05;;;;;;;16.77;49.09;100236.78;5040999;28;20024;-41
2024/01/15 05:10:59;;;;;;;1.40;0.80;;;;;;;16.85;49.19;100245.22;5041403;28;20104;-41
2024/01/15 05:13:25;;;;;;;2.15;0.98;;;;;;;16.95;49.20;100235.34;5041801;28;20032;-37
2024/01/15 05:15:50;;;;;;;1.58;0.80;;;;;;;17.03;49.05;100237.44;5040836;28;20028;-37
2024/01/15 05:18:17;;;;;;;1.90;0.70;;;;;;;17.12;49.08;100240.44;5044168;28;20067;-38
2024/01/15 05:20:42;;;;;;;1.63;0.82;;;;;;;17.21;49.34;100241.44;5048402;28;20738;-36
2024/01/15 05:23:08;;;;;;;1.63;0.85;;;;;;;17.29;49.02;100259.19;5039966;28;20120;-37
2024/01/15 05:25:33;;;;;;;2.60;0.98;;;;;;;17.37;49.10;100255.03;5038923;28;20029;-36
2024/01/15 05:27:58;;;;;;;1.85;0.85;;;;;;;17.45;48.89;100251.66;5040226;28;20054;-37
2024/01/15 05:30:24;;;;;;;1.55;0.93;;;;;;;17.52;49.04;100243.91;5045743;28;20052;-41
2024/01/15 05:32:49;;;;;;;2.45;1.10;;;;;;;17.60;48.84;100248.78;5042118;28;20059;-40
2024/01/15 05:35:15;;;;;;;1.08;0.88;;;;;;;17.68;49.06;100239.09;5038717;28;20500;-41
2024/01/15 05:37:44;;;;;;;0.75;0.70;;;;;;;17.75;48.72;100238.78;5044111;28;20296;-41
2024/01/15 05:40:10;;;;;;;2.00;1.00;;;;;;;17.83;48.79;100231.84;5038248;28;20092;-41
2024/01/15 05:42:35;;;;;;;1.88;1.05;;;;;;;17.90;49.07;100233.16;5039445;28;20048;-37
2024/01/15 05:45:03;;;;;;;1.40;0.85;;;;;;;17.97;48.70;100227.34;5037920;28;20033;-41
2024/01/15 05:47:29;;;;;;;1.67;0.80;;;;;;;18.05;48.54;100223.97;5039932;28;20049;-41
2024/01/15 05:49:54;;;;;;;2.28;0.80;;;;;;;18.12;48.66;100223.59;5037998;28;20044;-42
2024/01/15 05:52:21;;;;;;;2.70;1.20;;;;;;;18.17;48.60;100212.56;5037005;28;20021;-42
2024/01/15 05:54:47;;;;;;;2.92;0.90;;;;;;;18.21;48.43;100215.53;5038396;28;20029;-41
2024/01/15 05:57:12;;;;;;;2.85;1.13;;;;;;;18.24;48.26;100212.22;5038928;28;20043;-42
2024/01/15 05:59:37;;;;;;;1.30;0.80;;;;;;;18.23;48.26;100219.63;5037353;28;20028;-41
2024/01/15 06:02:03;;;;;;;1.25;0.90;;;;;;;18.25;48.39;100214.66;5040184;28;20020;-40
2024/01/15 06:04:28;;;;;;;2.45;0.98;;;;;;;18.27;47.98;100217.09;5038109;28;20195;-40
2024/01/15 06:06:54;;;;;;;2.90;1.00;;;;;;;18.27;48.14;100212.44;5037228;28;20462;-41
2024/01/15 06:09:19;;;;;;;2.30;0.90;;;;;;;18.27;48.18;100220.69;5036528;28;20029;-41
2024/01/15 06:11:44;;;;;;;5.20;1.20;;;;;;;18.27;48.22;100222.59;5041251;28;20048;-42
2024/01/15 06:14:10;;;;;;;4.38;1.35;;;;;;;18.26;48.07;100230.00;5077414;28;20021;-42
2024/01/15 06:16:35;;;;;;;1.83;0.98;;;;;;;18.27;48.09;100247.28;5041925;28;20028;-41
2024/01/15 06:19:01;;;;;;;2.30;1.13;;;;;;;18.27;47.88;100258.25;5043950;28;20163;-41
2024/01/15 06:21:26;;;;;;;3.45;1.13;;;;;;;18.26;47.83;100289.56;5051128;28;20035;-41
2024/01/15 06:23:51;;;;;;;2.40;1.27;;;;;;;18.24;47.83;100267.06;5040421;28;20033;-42
2024/01/15 06:26:17;;;;;;;2.40;1.00;;;;;;;18.21;48.10;100257.50;5042448;28;20025;-41
2024/01/15 06:28:42;;;;;;;3.85;1.08;;;;;;;18.20;48.16;100233.13;5043301;28;20308;-41
2024/01/15 06:31:08;;;;;;;2.85;1.30;;;;;;;18.19;47.88;100223.25;5042684;28;20053;-41
2024/01/15 06:33:33;;;;;;;2.08;1.05;;;;;;;18.18;48.03;100227.91;5044301;28;20029;-41
2024/01/15 06:35:58;;;;;;;3.22;1.38;;;;;;;18.18;48.14;100219.69;5044300;28;20040;-37
2024/01/15 06:38:25;;;;;;;3.35;1.20;;;;;;;18.19;48.02;100223.25;5044553;28;20036;-37
2024/01/15 06:40:51;;;;;;;2.38;1.00;;;;;;;18.18;47.87;100221.63;5043450;28;20028;-37
2024/01/15 06:43:17;;;;;;;2.38;1.02;;;;;;;18.18;48.12;100219.69;5042729;28;20060;-41
2024/01/15 06:45:45;;;;;;;1.42;0.68;;;;;;;18.20;48.37;100227.63;5041394;28;20068;-42
2024/01/15 06:48:14;;;;;;;1.52;0.85;;;;;;;18.22;48.39;100222.66;5041459;28;20016;-41
2024/01/15 06:50:39;;;;;;;3.55;0.98;;;;;;;18.24;48.21;100221.25;5044225;28;20409;-41
2024/01/15 06:53:05;;;;;;;2.97;1.10;;;;;;;18.25;48.23;100216.59;5040905;28;20294;-40
2024/01/15 06:55:30;;;;;;;2.63;1.00;;;;;;;18.27;48.11;100209.69;5039527;28;20029;-40
2024/01/15 06:57:55;;;;;;;2.97;1.00;;;;;;;18.29;48.01;100234.09;5044265;28;20091;-41
2024/01/15 07:00:21;;;;;;;4.68;1.17;;;;;;;18.31;48.01;100231.88;5042652;28;20058;-40
2024/01/15 07:02:46;;;;;;;1.83;1.00;;;;;;;18.32;47.94;100235.44;5043363;28;20053;-40
2024/01/15 07:05:12;;;;;;;3.08;1.30;;;;;;;18.32;47.84;100244.50;5041695;28;20085;-37
2024/01/15 07:07:37;;;;;;;2.88;1.13;;;;;;;18.33;47.99;100237.06;5047730;28;20029;-37
2024/01/15 07:10:03;;;;;;;1.98;0.90;;;;;;;18.31;47.78;100231.03;5045791;28;20037;-37
2024/01/15 07:12:29;;;;;;;3.45;1.00;;;;;;;18.31;47.74;100222.81;5043858;28;20077;-38
2024/01/15 07:14:56;;;;;;;1.67;1.00;;;;;;;18.28;47.70;100221.47;5044592;28;20037;-41
2024/01/15 07:17:21;;;;;;;4.80;1.30;;;;;;;18.27;47.66;100208.88;5044755;28;20532;-42
2024/01/15 07:19:46;;;;;;;2.70;1.13;;;;;;;18.25;47.58;100198.19;5039567;28;20028;-42
2024/01/15 07:22:12;;;;;;;2.53;1.13;;;;;;;18.22;47.77;100203.47;5041041;28;20408;-42
2024/01/15 07:24:37;;;;;;;3.63;1.00;;;;;;;18.20;47.59;100195.53;5045794;28;20037;-41
2024/01/15 07:27:04;;;;;;;2.45;0.93;;;;;;;18.19;47.78;100202.13;5041262;28;20067;-41
2024/01/15 07:29:30;;;;;;;2.58;1.00;;;;;;;18.18;47.52;100199.69;5042717;28;20139;-42
2024/01/15 07:31:55;;;;;;;4.88;2.00;;;;;;;18.18;47.63;100199.69;5041836;28;20305;-41
2024/01/15 07:34:22;;;;;;;3.05;1.00;;;;;;;18.17;47.67;100207.06;5042592;28;20036;-41
2024/01/15 07:36:47;;;;;;;1.33;0.90;;;;;;;18.16;47.67;100199.97;5039090;28;20044;-41
2024/01/15 07:39:13;;;;;;;2.63;1.20;;;;;;;18.18;47.45;100194.19;5039920;28;20049;-41
2024/01/15 07:41:39;;;;;;;1.75;1.05;;;;;;;18.18;47.72;100199.69;5040922;28;20039;-42
2024/01/15 07:44:05;;;;;;;4.05;1.17;;;;;;;18.17;47.59;100196.09;5039400;28;20139;-42
2024/01/15 07:46:30;;;;;;;3.35;1.08;;;;;;;18.19;47.65;100206.81;5039878;28;20575;-41
2024/01/15 07:48:57;;;;;;;3.05;1.30;;;;;;;18.20;47.67;100206.50;5041734;28;20276;-42
2024/01/15 07:51:23;;;;;;;1.65;0.90;;;;;;;18.21;47.68;100208.13;5040533;28;20029;-41
2024/01/15 07:53:49;;;;;;;4.43;1.10;;;;;;;18.21;47.59;100213.63;5041048;28;20036;-41
2024/01/15 07:56:14;;;;;;;2.42;1.20;;;;;;;18.22;47.54;100214.44;5040559;28;20539;-40
2024/01/15 07:58:40;;;;;;;2.30;1.15;;;;;;;18.22;47.43;100230.88;5041752;28;20273;-41
2024/01/15 08:01:06;;;;;;;2.47;1.13;;;;;;;18.23;47.65;100243.50;5039884;28;20029;-40
2024/01/15 08:03:31;;;;;;;3.97;1.20;;;;;;;18.23;47.42;100230.63;5040293;28;20024;-41
2024/01/15 08:05:59;;;;;;;4.53;1.50;;;;;;;18.24;47.48;100220.44;5040761;28;20108;-40
2024/01/15 08:08:25;;;;;;;2.90;1.23;;;;;;;18.26;47.68;100224.53;5041308;28;20028;-42
2024/01/15 08:10:52;;;;;;;2.83;1.15;;;;;;;18.27;47.68;100225.31;5043189;28;20576;-41
2024/01/15 08:13:17;;;;;;;3.78;1.55;;;;;;;18.27;47.67;100220.69;5042405;28;20461;-40
2024/01/15 08:15:42;;;;;;;2.20;1.20;;;;;;;18.28;47.50;100227.81;5043565;28;20068;-43
2024/01/15 08:18:08;;;;;;;4.28;1.35;;;;;;;18.29;47.50;100223.13;5042544;28;20055;-40
2024/01/15 08:20:34;;;;;;;2.53;1.30;;;;;;;18.30;47.66;100234.94;5042581;28;20044;-42
2024/01/15 08:23:00;;;;;;;2.75;1.20;;;;;;;18.29;47.65;100228.59;5043719;28;20024;-42
2024/01/15 08:25:25;;;;;;;2.95;1.33;;;;;;;18.32;47.60;100228.03;5037414;28;20422;-41
2024/01/15 08:27:51;;;;;;;4.00;1.20;;;;;;;18.32;47.51;100238.16;5042395;28;20383;-41
2024/01/15 08:30:18;;;;;;;4.03;1.33;;;;;;;18.31;47.41;100231.03;5041175;28;20068;-41
2024/01/15 08:32:44;;;;;;;2.95;1.27;;;;;;;18.30;47.48;100227.50;5042197;28;20025;-42
2024/01/15 08:35:10;;;;;;;3.40;1.30;;;;;;;18.30;47.56;100243.97;5041154;28;20116;-40
2024/01/15 08:37:35;;;;;;;4.57;1.50;;;;;;;18.28;47.60;100233.28;5041200;28;20045;-41
2024/01/15 08:40:00;;;;;;;4.10;1.27;;;;;;;18.27;47.47;100234.41;5039386;28;20024;-41
2024/01/15 08:42:26;;;;;;;5.07;1.75;;;;;;;18.28;47.34;100232.44;5041010;28;20021;-41
2024/01/15 08:44:51;;;;;;;3.45;1.25;;;;;;;18.28;47.44;100226.97;5039651;28;20307;-41
2024/01/15 08:47:17;;;;;;;4.50;1.45;;;;;;;18.27;47.37;100233.56;5042053;28;20111;-41
2024/01/15 08:49:44;;;;;;;3.92;1.60;;;;;;;18.27;47.63;100234.41;5040993;28;20075;-41
2024/01/15 08:52:09;;;;;;;3.90;1.50;;;;;;;18.28;47.50;100238.78;5042386;28;20029;-41
2024/01/15 08:54:35;;;;;;;2.90;1.23;;;;;;;18.27;47.61;100245.38;5040738;28;20028;-38
2024/01/15 08:57:00;;;;;;;3.42;1.27;;;;;;;18.30;47.59;100252.19;5049775;28;20489;-38
2024/01/15 08:59:26;;;;;;;3.28;1.30;;;;;;;18.29;47.46;100280.72;5039700;28;20029;-38
2024/01/15 09:01:52;;;;;;;4.43;1.27;;;;;;;18.29;47.42;100291.69;5038315;28;20501;-37
2024/01/15 09:04:18;;;;;;;5.68;1.20;;;;;;;18.30;47.50;100268.66;5040503;28;20082;-36
2024/01/15 09:06:49;;;;;;;2.95;1.42;;;;;;;18.31;47.55;100261.22;5039566;28;20462;-37
2024/01/15 09:09:14;;;;;;;4.45;1.20;;;;;;;18.32;47.53;100271.91;5040400;28;20032;-40
2024/01/15 09:11:40;;;;;;;1.90;1.02;;;;;;;18.33;47.31;100259.84;5043188;28;20066;-41
2024/01/15 09:14:06;;;;;;;6.28;1.77;;;;;;;18.33;47.46;100256.28;5041620;28;20032;-42
2024/01/15 09:16:32;;;;;;;3.15;1.38;;;;;;;18.32;47.13;100252.72;5040048;28;20430;-42
2024/01/15 09:18:57;;;;;;;2.70;1.30;;;;;;;18.31;47.07;100256.56;5044163;28;20029;-41
2024/01/15 09:21:24;;;;;;;4.15;1.42;;;;;;;18.30;47.11;100260.41;5042862;28;20517;-41
2024/01/15 09:23:50;;;;;;;2.72;1.17;;;;;;;18.30;47.03;100254.13;5041349;28;20537;-41
2024/01/15 09:26:15;;;;;;;2.15;1.23;;;;;;;18.28;47.23;100265.38;5041443;28;20052;-40
2024/01/15 09:28:41;;;;;;;3.63;1.45;;;;;;;18.26;47.05;100270.34;5072843;28;20112;-40
2024/01/15 09:31:06;;;;;;;4.53;1.33;;;;;;;18.24;47.21;100276.09;5043268;28;20477;-40
2024/01/15 09:33:31;;;;;;;2.45;1.30;;;;;;;18.23;47.03;100276.41;5039957;28;20397;-40
2024/01/15 09:35:57;;;;;;;2.58;1.40;;;;;;;18.20;46.99;100268.78;5040918;28;20590;-41
2024/01/15 09:38:23;;;;;;;6.70;1.50;;;;;;;18.20;46.73;100274.25;5044699;28;20493;-40
2024/01/15 09:40:49;;;;;;;2.30;1.30;;;;;;;18.19;47.11;100267.13;5037023;28;20116;-41
2024/01/15 09:43:15;;;;;;;4.85;1.42;;;;;;;18.17;47.09;100277.56;5035773;28;20044;-41
2024/01/15 09:45:41;;;;;;;2.35;1.10;;;;;;;18.16;47.03;100276.78;5041891;28;20029;-41
2024/01/15 09:48:07;;;;;;;3.00;1.10;;;;;;;18.16;46.95;100260.31;5038966;28;20029;-41
2024/01/15 09:50:32;;;;;;;46.92;1.98;;;;;;;18.16;47.25;100254.00;5039421;28;20370;-40
2024/01/15 09:52:58;;;;;;;9.80;1.42;;;;;;;18.17;47.57;100250.94;5040622;28;20282;-40
2024/01/15 09:55:23;;;;;;;7.68;1.50;;;;;;;18.21;47.50;100252.03;5038316;28;20115;-39
2024/01/15 09:57:50;;;;;;;15.98;1.50;;;;;;;18.25;47.43;100257.75;5039271;28;20036;-40
2024/01/15 10:00:18;;;;;;;8.30;1.33;;;;;;;18.31;47.14;100274.94;5040626;28;20036;-38
2024/01/15 10:02:44;;;;;;;3.53;1.48;;;;;;;18.35;47.18;100274.06;5055699;28;20028;-38
2024/01/15 10:05:09;;;;;;;5.13;1.30;;;;;;;18.41;47.05;100277.56;5038872;28;20033;-39
2024/01/15 10:07:36;;;;;;;2.60;1.23;;;;;;;18.44;47.14;100277.81;5072407;28;20649;-39
2024/01/15 10:10:03;;;;;;;2.13;1.02;;;;;;;18.50;47.00;100275.00;5037399;28;20052;-40
2024/01/15 10:12:28;;;;;;;3.00;1.20;;;;;;;18.52;47.11;100281.00;5041218;28;20025;-43
2024/01/15 10:14:54;;;;;;;4.38;1.20;;;;;;;18.55;47.27;100284.00;5039926;28;20056;-43
2024/01/15 10:17:19;;;;;;;2.65;1.20;;;;;;;18.56;47.24;100280.13;5041976;28;20131;-40
2024/01/15 10:19:46;;;;;;;3.05;1.33;;;;;;;18.58;46.97;100288.88;5039714;28;20032;-40
2024/01/15 10:22:13;;;;;;;4.45;1.38;;;;;;;18.60;46.79;100285.81;5039401;28;20523;-42
2024/01/15 10:24:40;;;;;;;4.80;1.27;;;;;;;18.62;46.80;100291.84;5038865;28;20029;-41
2024/01/15 10:27:07;;;;;;;4.10;1.20;;;;;;;18.65;46.71;100283.03;5040306;28;20362;-44
2024/01/15 10:29:32;;;;;;;3.63;1.40;;;;;;;18.68;46.73;100285.19;5040917;28;20179;-42
2024/01/15 10:31:58;;;;;;;3.65;1.23;;;;;;;18.72;46.65;100279.91;5041037;28;20530;-42
2024/01/15 10:34:25;;;;;;;4.43;1.45;;;;;;;18.76;46.71;100292.75;5039473;28;20025;-42
2024/01/15 10:36:55;;;;;;;2.97;1.10;;;;;;;18.80;46.77;100281.19;5040510;28;20184;-40
2024/01/15 10:39:21;;;;;;;3.10;1.30;;;;;;;18.84;46.46;100274.81;5039882;28;20103;-41
2024/01/15 10:41:46;;;;;;;4.22;1.50;;;;;;;18.89;46.55;100277.47;5041521;28;20033;-40
2024/01/15 10:44:12;;;;;;;4.88;1.48;;;;;;;18.94;46.46;100279.38;5040363;28;20036;-41
2024/01/15 10:46:37;;;;;;;4.40;1.35;;;;;;;18.99;46.68;100284.78;5040571;28;20107;-40
2024/01/15 10:49:04;;;;;;;3.65;1.48;;;;;;;19.02;46.59;100294.38;5021529;28;20098;-40
2024/01/15 10:51:29;;;;;;;2.17;1.30;;;;;;;19.07;46.63;100305.28;5038686;28;20304;-42
2024/01/15 10:53:55;;;;;;;2.78;1.33;;;;;;;19.10;46.69;100293.69;5040159;28;20448;-42
2024/01/15 10:56:22;;;;;;;3.38;1.48;;;;;;;19.14;46.67;100302.16;5023017;28;20540;-42
2024/01/15 10:58:49;;;;;;;5.00;1.30;;;;;;;19.17;46.52;100290.59;5042908;28;20476;-41
2024/01/15 11:01:15;;;;;;;2.60;1.23;;;;;;;19.20;46.48;100290.81;5043308;28;20132;-42
2024/01/15 11:03:42;;;;;;;2.30;1.17;;;;;;;19.20;46.40;100289.97;5040259;28;20434;-42
2024/01/15 11:06:19;;;;;;;4.00;1.50;;;;;;;19.22;46.58;100290.50;5040735;28;20028;-43
2024/01/15 11:08:47;;;;;;;3.28;1.10;;;;;;;19.24;46.36;100291.84;5041415;28;20017;-42
2024/01/15 11:11:13;;;;;;;3.05;1.20;;;;;;;19.24;46.18;100294.59;5041559;28;20032;-44
2024/01/15 11:13:38;;;;;;;5.32;1.30;;;;;;;19.27;46.11;100293.16;5044392;28;20028;-39
2024/01/15 11:16:06;;;;;;;4.45;1.65;;;;;;;19.28;45.80;100291.25;5047337;28;20027;-40